createdAt,value
2018-02-22T00:01:45.858Z,59.60
2018-02-22T00:04:14.237Z,59.50
2018-02-22T00:06:43.148Z,59.60
2018-02-22T00:09:12.556Z,59.70
2018-02-22T00:11:40.955Z,59.70
2018-02-22T00:14:09.335Z,59.70
2018-02-22T00:16:37.881Z,59.40
2018-02-22T00:19:06.261Z,59.40
2018-02-22T00:21:34.637Z,59.40
2018-02-22T00:24:03.044Z,59.30
2018-02-22T00:26:31.678Z,59.00
2018-02-22T00:29:00.098Z,59.10
2018-02-22T00:31:28.482Z,59.20
2018-02-22T00:33:57.252Z,58.90
2018-02-22T00:36:25.637Z,59.20
2018-02-22T00:38:54.025Z,59.20
2018-02-22T00:41:22.430Z,59.20
2018-02-22T00:43:51.583Z,59.00
2018-02-22T00:46:19.986Z,59.00
2018-02-22T00:48:48.377Z,59.20
2018-02-22T00:51:16.774Z,59.20
2018-02-22T00:53:45.998Z,62.70
2018-02-22T00:56:14.377Z,62.70
2018-02-22T00:58:42.782Z,61.90
2018-02-22T01:01:11.162Z,59.70
2018-02-22T01:03:40.084Z,59.20
2018-02-22T01:06:08.520Z,59.60
2018-02-22T01:08:36.946Z,61.40
2018-02-22T01:11:06.624Z,61.70
2018-02-22T01:13:35.013Z,61.70
2018-02-22T01:16:03.475Z,60.80
2018-02-22T01:18:31.854Z,61.00
2018-02-22T01:21:00.246Z,59.50
2018-02-22T01:23:29.102Z,60.00
2018-02-22T01:25:57.506Z,59.70
2018-02-22T01:28:26.440Z,58.90
2018-02-22T01:30:55.584Z,58.60
2018-02-22T01:33:23.981Z,58.60
2018-02-22T01:35:52.354Z,58.60
2018-02-22T01:38:20.761Z,58.50
2018-02-22T01:40:49.138Z,58.70
2018-02-22T01:43:17.782Z,59.10
2018-02-22T01:45:46.167Z,59.60
2018-02-22T01:48:14.541Z,59.10
2018-02-22T01:50:42.969Z,59.10
2018-02-22T01:53:12.602Z,59.60
2018-02-22T01:55:42.166Z,59.60
2018-02-22T01:58:11.586Z,59.90
2018-02-22T02:00:41.282Z,59.50
2018-02-22T02:03:10.265Z,59.40
2018-02-22T02:05:39.206Z,59.50
2018-02-22T02:08:08.455Z,59.40
2018-02-22T02:10:38.181Z,59.50
2018-02-22T02:13:07.981Z,59.50
2018-02-22T02:15:36.876Z,59.50
2018-02-22T02:18:05.915Z,59.10
2018-02-22T02:20:34.290Z,59.30
2018-02-22T02:23:02.666Z,59.30
2018-02-22T02:25:31.074Z,59.10
2018-02-22T02:28:05.018Z,59.50
2018-02-22T02:30:33.566Z,59.70
2018-02-22T02:33:01.941Z,59.80
2018-02-22T02:35:30.390Z,59.80
2018-02-22T02:37:58.788Z,59.80
2018-02-22T02:40:27.166Z,59.90
2018-02-22T02:42:55.562Z,60.00
2018-02-22T02:45:23.943Z,60.50
2018-02-22T02:47:52.350Z,60.30
2018-02-22T02:50:20.731Z,60.50
2018-02-22T02:52:50.398Z,60.40
2018-02-22T02:55:18.779Z,60.40
2018-02-22T02:58:09.679Z,60.30
2018-02-22T03:00:39.691Z,60.20
2018-02-22T03:03:08.115Z,60.30
2018-02-22T03:05:36.502Z,60.80
2018-02-22T03:08:04.882Z,60.60
2018-02-22T03:10:33.286Z,60.60
2018-02-22T03:13:01.654Z,61.80
2018-02-22T03:15:30.833Z,61.00
2018-02-22T03:17:59.222Z,61.00
2018-02-22T03:20:28.565Z,62.00
2018-02-22T03:22:56.953Z,61.90
2018-02-22T03:25:25.334Z,62.30
2018-02-22T03:27:53.734Z,62.20
2018-02-22T03:30:22.115Z,62.20
2018-02-22T03:32:50.524Z,62.00
2018-02-22T03:35:19.666Z,62.00
2018-02-22T03:37:48.240Z,61.90
2018-02-22T03:40:16.619Z,62.40
2018-02-22T03:42:44.997Z,62.00
2018-02-22T03:45:13.415Z,61.70
2018-02-22T03:47:41.786Z,62.40
2018-02-22T03:50:10.191Z,62.40
2018-02-22T03:52:39.339Z,62.10
2018-02-22T03:55:07.765Z,62.10
2018-02-22T03:57:36.913Z,62.10
2018-02-22T04:00:05.294Z,62.10
2018-02-22T04:02:33.694Z,62.00
2018-02-22T04:05:02.078Z,62.00
2018-02-22T04:07:30.486Z,62.30
2018-02-22T04:09:59.654Z,62.30
2018-02-22T04:12:28.077Z,62.30
2018-02-22T04:14:56.461Z,61.90
2018-02-22T04:17:24.841Z,62.50
2018-02-22T04:19:53.265Z,62.00
2018-02-22T04:22:21.677Z,62.00
2018-02-22T04:24:50.871Z,62.00
2018-02-22T04:27:20.015Z,61.70
2018-02-22T04:29:48.599Z,61.70
2018-02-22T04:32:16.980Z,61.60
2018-02-22T04:34:45.382Z,62.10
2018-02-22T04:37:13.786Z,62.10
2018-02-22T04:39:42.954Z,61.80
2018-02-22T04:42:14.940Z,61.70
2018-02-22T04:44:44.087Z,61.60
2018-02-22T04:47:12.871Z,61.60
2018-02-22T04:49:41.271Z,61.80
2018-02-22T04:52:09.654Z,61.50
2018-02-22T04:54:38.058Z,61.80
2018-02-22T04:57:07.970Z,62.30
2018-02-22T04:59:37.138Z,62.80
2018-02-22T05:02:05.549Z,62.00
2018-02-22T05:04:34.894Z,62.00
2018-02-22T05:07:03.283Z,62.00
2018-02-22T05:09:31.661Z,62.30
2018-02-22T05:12:00.066Z,62.00
2018-02-22T05:14:28.459Z,61.70
2018-02-22T05:16:56.858Z,61.60
2018-02-22T05:19:26.034Z,62.10
2018-02-22T05:21:54.577Z,62.10
2018-02-22T05:24:22.953Z,62.70
2018-02-22T05:26:51.334Z,61.90
2018-02-22T05:29:19.740Z,61.80
2018-02-22T05:31:48.117Z,62.50
2018-02-22T05:34:16.590Z,62.20
2018-02-22T05:36:44.933Z,61.50
2018-02-22T05:39:13.660Z,62.20
2018-02-22T05:41:42.050Z,61.60
2018-02-22T05:44:12.601Z,61.40
2018-02-22T05:46:41.798Z,61.10
2018-02-22T05:49:10.942Z,61.00
2018-02-22T05:51:39.362Z,61.00
2018-02-22T05:54:08.512Z,61.10
2018-02-22T05:56:37.186Z,61.00
2018-02-22T05:59:05.573Z,61.20
2018-02-22T06:01:33.941Z,61.30
2018-02-22T06:04:02.344Z,61.20
2018-02-22T06:06:30.718Z,61.00
2018-02-22T06:08:59.116Z,61.10
2018-02-22T06:11:27.510Z,60.80
2018-02-22T06:13:56.750Z,61.20
2018-02-22T06:16:25.151Z,61.10
2018-02-22T06:18:53.533Z,61.20
2018-02-22T06:21:21.932Z,61.10
2018-02-22T06:23:50.317Z,60.40
2018-02-22T06:26:18.727Z,60.30
2018-02-22T06:28:47.105Z,60.20
2018-02-22T06:31:15.913Z,60.50
2018-02-22T06:33:44.293Z,60.20
2018-02-22T06:36:12.666Z,60.40
2018-02-22T06:38:41.071Z,59.90
2018-02-22T06:41:09.449Z,60.50
2018-02-22T06:43:37.873Z,60.60
2018-02-22T06:46:06.253Z,60.10
2018-02-22T06:48:35.456Z,60.30
2018-02-22T06:51:04.594Z,60.30
2018-02-22T06:53:33.538Z,60.30
2018-02-22T06:56:02.705Z,59.80
2018-02-22T06:58:31.130Z,59.80
2018-02-22T07:00:59.544Z,59.50
2018-02-22T07:03:27.921Z,59.60
2018-02-22T07:05:56.499Z,59.80
2018-02-22T07:08:24.877Z,60.30
2018-02-22T07:10:53.254Z,60.20
2018-02-22T07:13:21.657Z,60.00
2018-02-22T07:15:50.057Z,59.70
2018-02-22T07:18:18.466Z,59.30
2018-02-22T07:20:46.843Z,59.20
2018-02-22T07:23:16.791Z,59.80
2018-02-22T07:25:43.671Z,59.80
2018-02-22T07:28:12.039Z,60.20
2018-02-22T07:30:40.438Z,60.00
2018-02-22T07:33:09.582Z,59.50
2018-02-22T07:35:37.987Z,59.50
2018-02-22T07:38:06.360Z,59.20
2018-02-22T07:40:34.950Z,59.20
2018-02-22T07:43:03.334Z,59.70
2018-02-22T07:45:31.729Z,59.20
2018-02-22T07:48:00.890Z,58.90
2018-02-22T07:50:29.273Z,58.90
2018-02-22T07:52:57.682Z,59.00
2018-02-22T07:55:26.822Z,61.60
2018-02-22T07:57:55.402Z,61.60
2018-02-22T08:00:23.782Z,60.50
2018-02-22T08:02:52.164Z,58.80
2018-02-22T08:05:20.565Z,58.50
2018-02-22T08:07:48.944Z,57.90
2018-02-22T08:10:17.341Z,58.00
2018-02-22T08:12:45.718Z,57.80
2018-02-22T08:15:14.154Z,58.00
2018-02-22T08:17:42.526Z,58.10
2018-02-22T08:20:10.910Z,57.90
2018-02-22T08:22:39.314Z,57.70
2018-02-22T08:25:07.705Z,57.70
2018-02-22T08:27:36.111Z,57.80
2018-02-22T08:30:05.283Z,57.90
2018-02-22T08:32:33.699Z,57.80
2018-02-22T08:35:02.075Z,58.00
2018-02-22T08:37:30.503Z,57.70
2018-02-22T08:39:59.210Z,57.50
2018-02-22T08:42:27.598Z,57.60
2018-02-22T08:44:56.021Z,57.60
2018-02-22T08:47:24.394Z,57.10
2018-02-22T08:49:52.806Z,57.50
2018-02-22T08:52:21.190Z,57.40
2018-02-22T08:54:49.564Z,57.30
2018-02-22T08:57:17.976Z,57.40
2018-02-22T08:59:47.105Z,56.90
2018-02-22T09:02:15.493Z,56.80
2018-02-22T09:04:43.867Z,56.80
2018-02-22T09:07:12.453Z,56.10
2018-02-22T09:09:40.826Z,56.80
2018-02-22T09:12:09.201Z,57.40
2018-02-22T09:14:37.597Z,56.80
2018-02-22T09:17:05.970Z,56.20
2018-02-22T09:19:34.367Z,56.10
2018-02-22T09:22:02.738Z,56.40
2018-02-22T09:24:31.303Z,55.90
2018-02-22T09:26:59.677Z,55.90
2018-02-22T09:29:28.044Z,55.80
2018-02-22T09:31:56.438Z,56.10
2018-02-22T09:34:24.808Z,56.10
2018-02-22T09:36:53.215Z,55.70
2018-02-22T09:39:21.591Z,55.20
2018-02-22T09:41:50.279Z,55.70
2018-02-22T09:44:18.654Z,55.40
2018-02-22T09:46:47.021Z,55.90
2018-02-22T09:49:15.433Z,55.60
2018-02-22T09:51:43.809Z,55.60
2018-02-22T09:54:12.202Z,56.30
2018-02-22T09:56:40.571Z,55.90
2018-02-22T09:59:08.946Z,55.70
2018-02-22T10:01:37.338Z,55.10
2018-02-22T10:04:06.498Z,55.40
2018-02-22T10:06:34.886Z,55.40
2018-02-22T10:09:03.273Z,55.90
2018-02-22T10:11:31.666Z,55.30
2018-02-22T10:14:00.038Z,55.10
2018-02-22T10:16:28.402Z,55.40
2018-02-22T10:18:56.798Z,55.60
2018-02-22T10:21:25.170Z,55.30
2018-02-22T10:23:53.568Z,55.80
2018-02-22T10:26:21.934Z,56.10
2018-02-22T10:28:50.482Z,55.40
2018-02-22T10:31:18.854Z,55.50
2018-02-22T10:33:47.224Z,54.60
2018-02-22T10:36:15.618Z,55.30
2018-02-22T10:38:43.982Z,55.80
2018-02-22T10:41:12.378Z,55.20
2018-02-22T10:43:40.752Z,55.90
2018-02-22T10:46:09.178Z,55.70
2018-02-22T10:48:38.314Z,55.70
2018-02-22T10:51:06.708Z,55.70
2018-02-22T10:53:35.103Z,55.90
2018-02-22T10:56:03.581Z,55.50
2018-02-22T10:58:32.047Z,55.40
2018-02-22T11:01:05.871Z,55.30
2018-02-22T11:03:34.260Z,55.50
2018-02-22T11:06:02.638Z,55.30
2018-02-22T11:08:31.406Z,54.90
2018-02-22T11:10:59.821Z,55.10
2018-02-22T11:13:28.181Z,54.70
2018-02-22T11:15:56.574Z,54.80
2018-02-22T11:18:24.946Z,54.30
2018-02-22T11:20:53.342Z,54.50
2018-02-22T11:23:22.481Z,54.20
2018-02-22T11:25:51.115Z,54.20
2018-02-22T11:28:19.534Z,53.90
2018-02-22T11:30:47.893Z,53.80
2018-02-22T11:33:16.312Z,54.00
2018-02-22T11:35:44.679Z,53.90
2018-02-22T11:38:13.063Z,54.30
2018-02-22T11:40:41.489Z,53.90
2018-02-22T11:43:10.662Z,54.00
2018-02-22T11:45:39.030Z,54.00
2018-02-22T11:48:07.403Z,54.10
2018-02-22T11:50:35.803Z,54.50
2018-02-22T11:53:04.177Z,54.40
2018-02-22T11:55:32.569Z,54.20
2018-02-22T11:58:00.936Z,54.30
2018-02-22T12:00:29.802Z,54.30
2018-02-22T12:02:58.166Z,54.00
2018-02-22T12:05:26.535Z,54.20
2018-02-22T12:07:54.926Z,54.10
2018-02-22T12:10:23.290Z,53.70
2018-02-22T12:12:51.675Z,53.70
2018-02-22T12:15:20.059Z,53.10
2018-02-22T12:17:48.862Z,53.30
2018-02-22T12:20:17.231Z,53.40
2018-02-22T12:22:45.594Z,52.80
2018-02-22T12:25:14.002Z,52.50
2018-02-22T12:27:42.377Z,52.40
2018-02-22T12:30:10.794Z,52.60
2018-02-22T12:32:39.935Z,52.50
2018-02-22T12:35:08.548Z,52.40
2018-02-22T12:37:36.922Z,53.00
2018-02-22T12:40:05.297Z,53.40
2018-02-22T12:42:33.702Z,53.50
2018-02-22T12:45:02.079Z,53.50
2018-02-22T12:47:30.465Z,54.00
2018-02-22T12:49:58.840Z,54.20
2018-02-22T12:52:27.370Z,54.30
2018-02-22T12:54:55.740Z,54.40
2018-02-22T12:57:24.106Z,53.90
2018-02-22T12:59:52.496Z,54.20
2018-02-22T13:02:21.484Z,53.40
2018-02-22T13:04:49.891Z,53.10
2018-02-22T13:07:18.552Z,52.40
2018-02-22T13:09:46.970Z,52.00
2018-02-22T13:12:15.334Z,51.70
2018-02-22T13:14:43.705Z,52.20
2018-02-22T13:17:12.105Z,53.00
2018-02-22T13:19:40.533Z,53.60
2018-02-22T13:22:09.699Z,53.10
2018-02-22T13:24:38.083Z,53.00
2018-02-22T13:27:06.622Z,52.00
2018-02-22T13:29:35.002Z,52.10
2018-02-22T13:32:03.383Z,51.80
2018-02-22T13:34:38.850Z,51.60
2018-02-22T13:37:25.093Z,50.40
2018-02-22T13:39:53.486Z,50.20
2018-02-22T13:42:22.014Z,49.40
2018-02-22T13:48:04.277Z,49.00
2018-02-22T13:50:50.433Z,49.50
2018-02-22T13:53:18.805Z,49.80
2018-02-22T13:55:47.233Z,50.60
2018-02-22T13:58:15.654Z,49.70
2018-02-22T14:01:02.147Z,50.00
2018-02-22T14:03:30.525Z,49.30
2018-02-22T14:05:58.896Z,49.40
2018-02-22T14:08:43.222Z,49.20
2018-02-22T14:11:12.682Z,48.10
2018-02-22T14:13:42.616Z,47.80
2018-02-22T14:16:11.771Z,47.20
2018-02-22T14:18:40.196Z,47.20
2018-02-22T14:21:09.330Z,46.90
2018-02-22T14:23:37.703Z,46.90
2018-02-22T14:26:06.095Z,47.70
2018-02-22T14:28:34.477Z,48.60
2018-02-22T14:31:02.908Z,47.80
2018-02-22T14:33:32.062Z,49.00
2018-02-22T14:36:02.162Z,49.00
2018-02-22T14:38:30.533Z,49.60
2018-02-22T14:40:58.995Z,50.10
2018-02-22T14:43:27.518Z,49.90
2018-02-22T14:45:55.887Z,50.40
2018-02-22T14:48:24.294Z,51.20
2018-02-22T14:50:52.658Z,50.60
2018-02-22T14:53:21.322Z,51.10
2018-02-22T14:55:49.695Z,51.30
2018-02-22T14:58:18.064Z,51.90
2018-02-22T15:00:51.976Z,51.50
2018-02-22T15:03:20.345Z,51.50
2018-02-22T15:05:48.729Z,52.00
2018-02-22T15:08:17.098Z,52.50
2018-02-22T15:10:45.502Z,52.80
2018-02-22T15:13:13.883Z,52.80
2018-02-22T15:15:42.869Z,52.80
2018-02-22T15:18:11.322Z,52.80
2018-02-22T15:20:40.500Z,53.90
2018-02-22T15:23:08.903Z,53.90
2018-02-22T15:25:37.271Z,53.90
2018-02-22T15:28:06.430Z,54.70
2018-02-22T15:30:34.810Z,54.60
2018-02-22T15:33:03.248Z,55.20
2018-02-22T15:35:31.621Z,55.10
2018-02-22T15:38:00.023Z,55.40
2018-02-22T15:40:28.432Z,56.10
2018-02-22T15:42:56.810Z,56.20
2018-02-22T15:45:25.218Z,57.00
2018-02-22T15:47:54.345Z,57.70
2018-02-22T15:50:22.930Z,57.70
2018-02-22T15:52:51.290Z,58.10
2018-02-22T15:55:19.674Z,58.00
2018-02-22T15:57:48.061Z,58.00
2018-02-22T16:00:16.427Z,57.90
2018-02-22T16:02:44.903Z,57.80
2018-02-22T16:05:13.314Z,58.30
2018-02-22T16:07:41.730Z,58.70
2018-02-22T16:10:10.104Z,59.10
2018-02-22T16:12:39.242Z,59.30
2018-02-22T16:15:07.631Z,59.30
2018-02-22T16:17:37.062Z,59.50
2018-02-22T16:20:05.467Z,59.80
2018-02-22T16:22:33.832Z,59.80
2018-02-22T16:25:02.523Z,59.80
2018-02-22T16:27:31.169Z,59.70
2018-02-22T16:29:59.551Z,59.90
2018-02-22T16:32:27.940Z,60.00
2018-02-22T16:34:56.326Z,60.30
2018-02-22T16:37:24.835Z,60.10
2018-02-22T16:39:53.210Z,59.70
2018-02-22T16:42:22.574Z,59.60
2018-02-22T16:44:50.958Z,59.60
2018-02-22T16:47:19.329Z,59.90
2018-02-22T16:49:47.725Z,60.10
2018-02-22T16:52:16.197Z,60.60
2018-02-22T16:54:44.594Z,60.20
2018-02-22T16:57:13.186Z,59.70
2018-02-22T16:59:41.606Z,60.00
2018-02-22T17:02:10.216Z,59.80
2018-02-22T17:04:39.241Z,59.60
2018-02-22T17:07:07.690Z,59.90
2018-02-22T17:09:36.117Z,60.00
2018-02-22T17:12:05.580Z,60.10
2018-02-22T17:14:34.329Z,60.00
2018-02-22T17:17:03.058Z,60.60
2018-02-22T17:19:31.519Z,60.80
2018-02-22T17:22:00.055Z,60.60
2018-02-22T17:24:29.250Z,61.50
2018-02-22T17:27:03.798Z,61.80
2018-02-22T17:29:37.919Z,61.80
2018-02-22T17:32:11.835Z,62.20
2018-02-22T17:34:40.272Z,62.40
2018-02-22T17:37:14.162Z,63.00
2018-02-22T17:42:49.093Z,64.50
2018-02-22T17:45:18.853Z,65.00
2018-02-22T17:47:48.158Z,65.40
2018-02-22T17:50:17.341Z,65.90
2018-02-22T17:52:46.490Z,65.80
2018-02-22T17:55:15.027Z,65.80
2018-02-22T17:57:44.202Z,66.20
2018-02-22T18:00:12.584Z,66.20
2018-02-22T18:02:40.993Z,66.50
2018-02-22T18:05:10.145Z,66.90
2018-02-22T18:07:38.659Z,66.90
2018-02-22T18:10:07.804Z,66.80
2018-02-22T18:12:36.433Z,66.80
2018-02-22T18:15:05.380Z,67.20
2018-02-22T18:17:33.963Z,67.40
2018-02-22T18:20:02.545Z,67.60
2018-02-22T18:22:31.129Z,67.50
2018-02-22T18:24:59.608Z,67.20
2018-02-22T18:27:28.000Z,67.30
2018-02-22T18:30:02.710Z,66.90
2018-02-22T18:32:31.112Z,66.90
2018-02-22T18:35:00.379Z,67.20
2018-02-22T18:37:34.830Z,67.50
2018-02-22T18:43:18.478Z,67.70
2018-02-22T18:45:46.901Z,67.90
2018-02-22T18:48:16.054Z,67.60
2018-02-22T18:50:44.432Z,67.60
2018-02-22T18:53:12.853Z,67.90
2018-02-22T18:55:41.998Z,68.20
2018-02-22T18:58:10.409Z,68.20
2018-02-22T19:00:39.775Z,68.80
2018-02-22T19:03:08.354Z,68.40
2018-02-22T19:05:36.801Z,68.80
2018-02-22T19:08:05.435Z,68.60
2018-02-22T19:10:36.481Z,69.30
2018-02-22T19:13:04.883Z,69.30
2018-02-22T19:15:33.298Z,68.80
2018-02-22T19:18:01.716Z,68.30
2018-02-22T19:20:30.597Z,68.60
2018-02-22T19:22:59.590Z,68.70
2018-02-22T19:25:28.380Z,68.40
2018-02-22T19:27:57.168Z,68.60
2018-02-22T19:30:27.195Z,68.30
2018-02-22T19:32:55.605Z,68.20
2018-02-22T19:35:24.752Z,67.80
2018-02-22T19:37:53.441Z,67.80
2018-02-22T19:40:21.828Z,67.10
2018-02-22T19:42:50.211Z,67.00
2018-02-22T19:45:18.613Z,67.00
2018-02-22T19:47:47.164Z,66.90
2018-02-22T19:50:15.592Z,66.70
2018-02-22T19:52:45.153Z,66.50
2018-02-22T19:55:13.631Z,66.50
2018-02-22T19:57:42.467Z,66.20
2018-02-22T20:00:11.234Z,66.50
2018-02-22T20:02:40.635Z,66.40
2018-02-22T20:05:09.059Z,66.40
2018-02-22T20:07:38.419Z,66.40
2018-02-22T20:10:06.853Z,66.20
2018-02-22T20:12:35.940Z,67.00
2018-02-22T20:15:05.981Z,67.40
2018-02-22T20:17:34.465Z,67.70
2018-02-22T20:20:03.090Z,67.80
2018-02-22T20:22:32.485Z,67.10
2018-02-22T20:25:01.399Z,67.10
2018-02-22T20:27:30.158Z,67.00
2018-02-22T20:29:59.738Z,67.20
2018-02-22T20:32:29.437Z,67.10
2018-02-22T20:34:58.326Z,67.10
2018-02-22T20:37:27.882Z,67.00
2018-02-22T20:39:56.528Z,67.00
2018-02-22T20:42:24.999Z,66.90
2018-02-22T20:44:53.509Z,67.40
2018-02-22T20:47:22.491Z,67.00
2018-02-22T20:49:52.098Z,66.50
2018-02-22T20:52:25.564Z,66.50
2018-02-22T20:54:54.981Z,66.70
2018-02-22T20:57:23.665Z,66.70
2018-02-22T20:59:52.452Z,66.60
2018-02-22T21:02:20.838Z,66.40
2018-02-22T21:04:49.258Z,66.30
2018-02-22T21:07:18.918Z,65.60
2018-02-22T21:09:47.503Z,65.60
2018-02-22T21:12:16.125Z,65.20
2018-02-22T21:14:45.387Z,65.10
2018-02-22T21:17:14.530Z,65.10
2018-02-22T21:19:44.394Z,66.30
2018-02-22T21:22:14.213Z,66.30
2018-02-22T21:24:43.803Z,65.80
2018-02-22T21:27:14.159Z,66.10
2018-02-22T21:29:43.713Z,66.10
2018-02-22T21:32:13.949Z,66.10
2018-02-22T21:34:42.371Z,66.00
2018-02-22T21:37:10.754Z,66.00
2018-02-22T21:39:39.169Z,65.80
2018-02-22T21:42:07.628Z,65.50
2018-02-22T21:44:36.804Z,65.40
2018-02-22T21:47:05.480Z,65.40
2018-02-22T21:49:34.108Z,64.90
2018-02-22T21:52:03.309Z,65.20
2018-02-22T21:54:32.136Z,65.20
2018-02-22T21:57:00.578Z,64.90
2018-02-22T21:59:28.990Z,65.20
2018-02-22T22:01:57.393Z,64.40
2018-02-22T22:04:25.867Z,65.10
2018-02-22T22:06:59.185Z,65.10
2018-02-22T22:09:29.184Z,65.00
2018-02-22T22:11:57.926Z,65.30
2018-02-22T22:14:26.368Z,65.30
2018-02-22T22:16:55.539Z,65.70
2018-02-22T22:19:24.870Z,66.50
2018-02-22T22:21:54.372Z,65.60
2018-02-22T22:24:24.670Z,65.20
2018-02-22T22:26:54.523Z,65.00
2018-02-22T22:29:36.742Z,65.20
2018-02-22T22:32:06.083Z,65.20
2018-02-22T22:34:36.015Z,64.80
2018-02-22T22:37:05.727Z,65.00
2018-02-22T22:39:35.989Z,65.00
2018-02-22T22:42:05.986Z,65.50
2018-02-22T22:44:36.435Z,65.30
2018-02-22T22:47:06.407Z,65.30
2018-02-22T22:49:35.642Z,65.30
2018-02-22T22:52:05.469Z,65.10
2018-02-22T22:54:35.616Z,64.90
2018-02-22T22:57:06.161Z,64.80
2018-02-22T22:59:36.509Z,64.90
2018-02-22T23:02:07.098Z,64.60
2018-02-22T23:04:37.321Z,64.60
2018-02-22T23:07:07.439Z,65.00
2018-02-22T23:09:37.265Z,64.90
2018-02-22T23:12:07.442Z,64.40
2018-02-22T23:14:37.326Z,64.50
2018-02-22T23:17:08.142Z,64.40
2018-02-22T23:19:38.355Z,64.40
2018-02-22T23:22:08.195Z,64.80
2018-02-22T23:24:38.330Z,64.80
2018-02-22T23:27:07.749Z,64.80
2018-02-22T23:29:37.606Z,64.40
2018-02-22T23:32:07.599Z,64.90
2018-02-22T23:34:37.894Z,64.60
2018-02-22T23:37:06.389Z,64.50
2018-02-22T23:39:34.797Z,63.80
2018-02-22T23:42:11.155Z,63.70
2018-02-22T23:44:42.895Z,63.70
2018-02-22T23:47:13.341Z,63.40
2018-02-22T23:49:43.798Z,63.40
2018-02-22T23:52:14.807Z,63.40
2018-02-22T23:54:44.729Z,63.20
2018-02-22T23:57:14.877Z,63.30
2018-02-22T23:59:45.318Z,62.50
